LFBO/TLS METAR and TAF weather

Enter ICAO airport designator
Station Type Date Time Source
LFBO METAR 2021/09/27 06:30 UTC NOAA

LFBO 270630Z AUTO 17003KT CAVOK 15/15 Q1019 NOSIG


Station Type Date Time Source
LFBO Decoded METAR 2021/09/27 06:30 UTC NOAA

Toulouse / Blagnac, France (LFBO) 43-38N 001-22E 153M
Sep 27, 2021 - 02:30 AM EDT / 2021.09.27 0630 UTC
Wind: from the S (170 degrees) at 3 MPH (3 KT):0
Visibility: greater than 7 mile(s):0
Temperature: 59 F (15 C)
Dew Point: 59 F (15 C)
Relative Humidity: 100%
Pressure (altimeter): 30.09 in. Hg (1019 hPa)
ob: LFBO 270630Z AUTO 17003KT CAVOK 15/15 Q1019 NOSIG
cycle: 6

Station Type Date Time Source
LFBO TAF 2021/09/27 06:21 UTC NOAA

TAF LFBO 270500Z 2706/2812 VRB03KT CAVOK
BECMG 2710/2712 30012KT
TEMPO 2713/2723 BKN030
BECMG 2722/2724 VRB03KT

Example: see airport list